sensor_id;sensor_type;location;lat;lon;timestamp;pressure;altitude;pressure_sealevel;temperature;humidity
10392;BME280;5242;49.244;6.774;2023-06-24T00:02:02;100371.09;;;16.16;63.50
10392;BME280;5242;49.244;6.774;2023-06-24T00:09:54;100357.91;;;16.02;65.96
10392;BME280;5242;49.244;6.774;2023-06-24T00:17:46;100374.47;;;16.05;66.77
10392;BME280;5242;49.244;6.774;2023-06-24T00:25:38;100378.75;;;16.03;66.08
10392;BME280;5242;49.244;6.774;2023-06-24T00:33:30;100376.94;;;15.88;65.55
10392;BME280;5242;49.244;6.774;2023-06-24T00:41:27;100385.84;;;15.81;65.74
10392;BME280;5242;49.244;6.774;2023-06-24T00:49:19;100392.47;;;15.57;67.28
10392;BME280;5242;49.244;6.774;2023-06-24T00:57:11;100385.28;;;15.49;67.98
10392;BME280;5242;49.244;6.774;2023-06-24T01:05:04;100382.31;;;15.34;66.62
10392;BME280;5242;49.244;6.774;2023-06-24T01:12:57;100384.34;;;15.18;69.68
10392;BME280;5242;49.244;6.774;2023-06-24T01:29:06;100394.41;;;14.91;71.84
10392;BME280;5242;49.244;6.774;2023-06-24T01:45:19;100393.19;;;14.69;73.90
10392;BME280;5242;49.244;6.774;2023-06-24T01:53:14;100408.34;;;14.63;71.46
10392;BME280;5242;49.244;6.774;2023-06-24T02:01:07;100393.13;;;14.49;72.48
10392;BME280;5242;49.244;6.774;2023-06-24T02:09:00;100399.59;;;14.41;75.92
10392;BME280;5242;49.244;6.774;2023-06-24T02:16:53;100387.22;;;14.47;75.08
10392;BME280;5242;49.244;6.774;2023-06-24T02:24:49;100395.88;;;14.49;72.96
10392;BME280;5242;49.244;6.774;2023-06-24T02:32:41;100386.91;;;14.33;77.63
10392;BME280;5242;49.244;6.774;2023-06-24T02:40:33;100388.09;;;14.16;74.82
10392;BME280;5242;49.244;6.774;2023-06-24T02:48:25;100375.22;;;14.01;76.88
10392;BME280;5242;49.244;6.774;2023-06-24T02:56:18;100391.03;;;14.07;76.92
10392;BME280;5242;49.244;6.774;2023-06-24T03:04:12;100395.00;;;14.10;77.30
10392;BME280;5242;49.244;6.774;2023-06-24T03:12:05;100402.28;;;13.86;79.68
10392;BME280;5242;49.244;6.774;2023-06-24T03:19:57;100404.59;;;13.68;82.02
10392;BME280;5242;49.244;6.774;2023-06-24T03:27:49;100406.25;;;13.57;78.59
10392;BME280;5242;49.244;6.774;2023-06-24T03:35:41;100413.22;;;13.55;79.28
10392;BME280;5242;49.244;6.774;2023-06-24T03:43:32;100412.41;;;13.54;79.64
10392;BME280;5242;49.244;6.774;2023-06-24T03:51:24;100412.53;;;13.58;78.81
10392;BME280;5242;49.244;6.774;2023-06-24T03:59:16;100416.06;;;13.58;80.16
10392;BME280;5242;49.244;6.774;2023-06-24T04:07:08;100415.88;;;13.67;80.58
10392;BME280;5242;49.244;6.774;2023-06-24T04:15:00;100421.59;;;13.78;80.38
10392;BME280;5242;49.244;6.774;2023-06-24T04:22:51;100419.16;;;13.88;79.18
10392;BME280;5242;49.244;6.774;2023-06-24T04:30:43;100419.13;;;14.04;80.57
10392;BME280;5242;49.244;6.774;2023-06-24T04:38:35;100424.25;;;14.22;79.17
10392;BME280;5242;49.244;6.774;2023-06-24T04:46:27;100425.44;;;14.40;77.51
10392;BME280;5242;49.244;6.774;2023-06-24T04:54:19;100419.72;;;14.65;78.21
10392;BME280;5242;49.244;6.774;2023-06-24T05:02:11;100428.63;;;14.97;77.92
10392;BME280;5242;49.244;6.774;2023-06-24T05:10:03;100435.03;;;15.24;79.09
10392;BME280;5242;49.244;6.774;2023-06-24T05:17:55;100435.78;;;15.67;79.50
10392;BME280;5242;49.244;6.774;2023-06-24T05:25:47;100434.00;;;15.98;76.68
10392;BME280;5242;49.244;6.774;2023-06-24T05:33:39;100434.56;;;16.34;75.12
10392;BME280;5242;49.244;6.774;2023-06-24T05:41:31;100449.94;;;16.68;76.59
10392;BME280;5242;49.244;6.774;2023-06-24T05:49:23;100459.06;;;17.03;78.52
10392;BME280;5242;49.244;6.774;2023-06-24T05:57:14;100459.00;;;17.33;75.43
10392;BME280;5242;49.244;6.774;2023-06-24T06:05:07;100457.09;;;17.78;76.63
10392;BME280;5242;49.244;6.774;2023-06-24T06:12:58;100452.41;;;18.30;73.19
10392;BME280;5242;49.244;6.774;2023-06-24T06:20:50;100449.91;;;18.73;71.06
10392;BME280;5242;49.244;6.774;2023-06-24T06:28:42;100446.16;;;19.17;70.06
10392;BME280;5242;49.244;6.774;2023-06-24T06:36:34;100441.56;;;19.79;68.29
10392;BME280;5242;49.244;6.774;2023-06-24T06:44:26;100436.41;;;20.34;65.79
10392;BME280;5242;49.244;6.774;2023-06-24T06:52:17;100441.00;;;20.91;62.02
10392;BME280;5242;49.244;6.774;2023-06-24T07:00:10;100447.03;;;21.56;61.12
10392;BME280;5242;49.244;6.774;2023-06-24T07:08:03;100436.28;;;22.10;57.49
10392;BME280;5242;49.244;6.774;2023-06-24T07:15:55;100433.44;;;22.59;56.80
10392;BME280;5242;49.244;6.774;2023-06-24T07:23:47;100416.22;;;23.06;55.53
10392;BME280;5242;49.244;6.774;2023-06-24T07:31:39;100420.03;;;23.70;54.34
10392;BME280;5242;49.244;6.774;2023-06-24T07:39:31;100407.31;;;24.19;50.49
10392;BME280;5242;49.244;6.774;2023-06-24T07:47:22;100412.69;;;24.90;48.04
10392;BME280;5242;49.244;6.774;2023-06-24T07:55:15;100409.81;;;25.50;45.96
10392;BME280;5242;49.244;6.774;2023-06-24T08:03:07;100403.06;;;26.13;44.70
10392;BME280;5242;49.244;6.774;2023-06-24T08:10:59;100387.56;;;26.83;43.27
10392;BME280;5242;49.244;6.774;2023-06-24T08:18:50;100387.16;;;27.10;39.14
10392;BME280;5242;49.244;6.774;2023-06-24T08:26:42;100384.00;;;27.72;39.25
10392;BME280;5242;49.244;6.774;2023-06-24T08:34:34;100374.78;;;28.19;37.68
10392;BME280;5242;49.244;6.774;2023-06-24T08:42:26;100386.75;;;28.54;36.27
10392;BME280;5242;49.244;6.774;2023-06-24T08:50:18;100366.75;;;29.37;34.80
10392;BME280;5242;49.244;6.774;2023-06-24T08:58:11;100368.41;;;30.48;34.05
10392;BME280;5242;49.244;6.774;2023-06-24T09:06:03;100366.06;;;33.17;28.30
10392;BME280;5242;49.244;6.774;2023-06-24T09:13:59;100345.03;;;33.74;26.11
10392;BME280;5242;49.244;6.774;2023-06-24T09:21:51;100347.50;;;33.66;26.78
10392;BME280;5242;49.244;6.774;2023-06-24T09:29:46;100327.56;;;34.74;27.03
10392;BME280;5242;49.244;6.774;2023-06-24T09:37:39;100308.13;;;35.96;24.96
10392;BME280;5242;49.244;6.774;2023-06-24T09:45:31;100295.13;;;37.47;23.65
10392;BME280;5242;49.244;6.774;2023-06-24T09:53:23;100290.56;;;37.85;23.91
10392;BME280;5242;49.244;6.774;2023-06-24T10:01:16;100286.63;;;38.00;21.79
10392;BME280;5242;49.244;6.774;2023-06-24T10:09:08;100283.47;;;36.25;20.63
10392;BME280;5242;49.244;6.774;2023-06-24T10:17:04;100272.19;;;35.05;21.40
10392;BME280;5242;49.244;6.774;2023-06-24T10:24:59;100269.75;;;35.95;20.91
10392;BME280;5242;49.244;6.774;2023-06-24T10:32:52;100258.44;;;35.95;21.92
10392;BME280;5242;49.244;6.774;2023-06-24T10:40:48;100263.09;;;35.33;22.31
10392;BME280;5242;49.244;6.774;2023-06-24T10:48:40;100262.06;;;35.36;21.80
10392;BME280;5242;49.244;6.774;2023-06-24T10:56:32;100237.31;;;36.24;21.68
10392;BME280;5242;49.244;6.774;2023-06-24T11:04:24;100233.19;;;36.42;20.95
10392;BME280;5242;49.244;6.774;2023-06-24T11:12:17;100231.00;;;37.16;20.52
10392;BME280;5242;49.244;6.774;2023-06-24T11:20:13;100217.69;;;37.47;19.64
10392;BME280;5242;49.244;6.774;2023-06-24T11:28:12;100208.31;;;37.99;19.49
10392;BME280;5242;49.244;6.774;2023-06-24T11:36:09;100196.06;;;38.40;20.04
10392;BME280;5242;49.244;6.774;2023-06-24T11:44:00;100177.22;;;38.86;18.72
10392;BME280;5242;49.244;6.774;2023-06-24T11:51:52;100175.66;;;39.47;17.24
10392;BME280;5242;49.244;6.774;2023-06-24T11:59:44;100174.91;;;36.69;19.19
10392;BME280;5242;49.244;6.774;2023-06-24T12:07:36;100159.84;;;34.25;21.94
10392;BME280;5242;49.244;6.774;2023-06-24T12:15:28;100133.41;;;37.19;19.35
10392;BME280;5242;49.244;6.774;2023-06-24T12:23:20;100118.50;;;37.49;19.26
10392;BME280;5242;49.244;6.774;2023-06-24T12:31:12;100111.03;;;37.81;19.54
10392;BME280;5242;49.244;6.774;2023-06-24T12:39:04;100112.06;;;37.01;19.10
10392;BME280;5242;49.244;6.774;2023-06-24T12:46:55;100102.59;;;37.70;18.92
10392;BME280;5242;49.244;6.774;2023-06-24T12:54:47;100089.16;;;38.01;18.43
10392;BME280;5242;49.244;6.774;2023-06-24T13:02:39;100084.28;;;38.51;17.28
10392;BME280;5242;49.244;6.774;2023-06-24T13:10:31;100080.72;;;37.24;18.22
10392;BME280;5242;49.244;6.774;2023-06-24T13:18:24;100080.63;;;34.08;21.22
10392;BME280;5242;49.244;6.774;2023-06-24T13:26:16;100082.69;;;32.42;23.26
10392;BME280;5242;49.244;6.774;2023-06-24T13:34:08;100071.25;;;32.66;22.50
10392;BME280;5242;49.244;6.774;2023-06-24T13:41:59;100054.19;;;33.53;21.96
10392;BME280;5242;49.244;6.774;2023-06-24T13:49:52;100046.38;;;34.01;21.43
10392;BME280;5242;49.244;6.774;2023-06-24T13:57:44;100048.72;;;32.92;22.05
10392;BME280;5242;49.244;6.774;2023-06-24T14:05:36;100043.34;;;32.12;22.80
10392;BME280;5242;49.244;6.774;2023-06-24T14:13:28;100028.78;;;32.14;22.83
10392;BME280;5242;49.244;6.774;2023-06-24T14:21:20;100021.50;;;32.07;22.69
10392;BME280;5242;49.244;6.774;2023-06-24T14:29:12;99999.56;;;32.32;22.96
10392;BME280;5242;49.244;6.774;2023-06-24T14:37:04;100002.66;;;32.54;22.50
10392;BME280;5242;49.244;6.774;2023-06-24T14:44:56;99990.19;;;32.61;22.64
10392;BME280;5242;49.244;6.774;2023-06-24T14:52:49;99986.44;;;32.49;22.57
10392;BME280;5242;49.244;6.774;2023-06-24T15:00:40;99972.56;;;32.25;22.90
10392;BME280;5242;49.244;6.774;2023-06-24T15:08:32;99963.34;;;31.54;23.87
10392;BME280;5242;49.244;6.774;2023-06-24T15:16:24;99963.50;;;31.45;23.96
10392;BME280;5242;49.244;6.774;2023-06-24T15:24:16;99953.38;;;31.88;23.75
10392;BME280;5242;49.244;6.774;2023-06-24T15:32:08;99961.13;;;31.28;24.93
10392;BME280;5242;49.244;6.774;2023-06-24T15:39:59;99951.94;;;30.98;25.02
10392;BME280;5242;49.244;6.774;2023-06-24T15:47:51;99940.78;;;30.89;25.51
10392;BME280;5242;49.244;6.774;2023-06-24T15:55:43;99941.94;;;30.97;25.37
10392;BME280;5242;49.244;6.774;2023-06-24T16:03:35;99938.44;;;30.87;26.47
10392;BME280;5242;49.244;6.774;2023-06-24T16:11:28;99926.13;;;30.85;26.22
10392;BME280;5242;49.244;6.774;2023-06-24T16:19:20;99918.47;;;30.85;26.26
10392;BME280;5242;49.244;6.774;2023-06-24T16:27:14;99909.16;;;30.79;26.96
10392;BME280;5242;49.244;6.774;2023-06-24T16:35:06;99919.22;;;30.71;26.44
10392;BME280;5242;49.244;6.774;2023-06-24T16:42:59;99912.41;;;30.63;26.58
10392;BME280;5242;49.244;6.774;2023-06-24T16:50:50;99916.19;;;30.21;26.94
10392;BME280;5242;49.244;6.774;2023-06-24T16:58:42;99907.16;;;30.41;27.04
10392;BME280;5242;49.244;6.774;2023-06-24T17:06:34;99903.09;;;30.42;27.46
10392;BME280;5242;49.244;6.774;2023-06-24T17:14:27;99901.78;;;30.67;26.93
10392;BME280;5242;49.244;6.774;2023-06-24T17:22:19;99898.88;;;30.76;26.98
10392;BME280;5242;49.244;6.774;2023-06-24T17:30:11;99899.97;;;30.25;27.46
10392;BME280;5242;49.244;6.774;2023-06-24T17:38:03;99888.63;;;29.95;28.27
10392;BME280;5242;49.244;6.774;2023-06-24T17:45:55;99887.00;;;29.46;28.81
10392;BME280;5242;49.244;6.774;2023-06-24T17:53:47;99885.53;;;29.26;29.12
10392;BME280;5242;49.244;6.774;2023-06-24T18:01:39;99881.84;;;29.11;29.19
10392;BME280;5242;49.244;6.774;2023-06-24T18:09:31;99876.88;;;29.15;29.16
10392;BME280;5242;49.244;6.774;2023-06-24T18:17:22;99870.66;;;29.02;29.79
10392;BME280;5242;49.244;6.774;2023-06-24T18:25:14;99880.38;;;28.82;30.33
10392;BME280;5242;49.244;6.774;2023-06-24T18:33:06;99874.66;;;28.58;31.40
10392;BME280;5242;49.244;6.774;2023-06-24T18:40:58;99873.25;;;28.26;31.83
10392;BME280;5242;49.244;6.774;2023-06-24T18:48:50;99875.72;;;27.87;33.11
10392;BME280;5242;49.244;6.774;2023-06-24T18:56:43;99878.09;;;27.48;33.71
10392;BME280;5242;49.244;6.774;2023-06-24T19:04:35;99870.53;;;27.18;36.12
10392;BME280;5242;49.244;6.774;2023-06-24T19:12:27;99866.94;;;26.86;36.07
10392;BME280;5242;49.244;6.774;2023-06-24T19:20:18;99879.13;;;26.35;37.72
10392;BME280;5242;49.244;6.774;2023-06-24T19:28:10;99872.72;;;25.91;39.45
10392;BME280;5242;49.244;6.774;2023-06-24T19:36:02;99885.03;;;25.42;40.15
10392;BME280;5242;49.244;6.774;2023-06-24T19:44:03;99882.28;;;25.00;41.41
10392;BME280;5242;49.244;6.774;2023-06-24T19:51:56;99887.13;;;24.58;41.77
10392;BME280;5242;49.244;6.774;2023-06-24T19:59:47;99892.06;;;24.21;42.01
10392;BME280;5242;49.244;6.774;2023-06-24T20:07:39;99903.56;;;23.90;42.77
10392;BME280;5242;49.244;6.774;2023-06-24T20:15:31;99900.06;;;23.53;44.58
10392;BME280;5242;49.244;6.774;2023-06-24T20:23:23;99901.03;;;23.10;44.89
10392;BME280;5242;49.244;6.774;2023-06-24T20:31:15;99904.19;;;22.72;46.83
10392;BME280;5242;49.244;6.774;2023-06-24T20:39:07;99911.06;;;22.44;47.83
10392;BME280;5242;49.244;6.774;2023-06-24T20:46:58;99909.06;;;22.25;47.71
10392;BME280;5242;49.244;6.774;2023-06-24T20:54:50;99921.34;;;22.00;49.05
10392;BME280;5242;49.244;6.774;2023-06-24T21:02:42;99910.66;;;21.75;50.61
10392;BME280;5242;49.244;6.774;2023-06-24T21:10:34;99911.09;;;21.46;50.11
10392;BME280;5242;49.244;6.774;2023-06-24T21:18:26;99901.97;;;21.19;51.10
10392;BME280;5242;49.244;6.774;2023-06-24T21:26:18;99898.81;;;20.90;51.28
10392;BME280;5242;49.244;6.774;2023-06-24T21:34:10;99895.13;;;20.66;52.15
10392;BME280;5242;49.244;6.774;2023-06-24T21:42:02;99896.19;;;20.41;53.05
10392;BME280;5242;49.244;6.774;2023-06-24T21:49:54;99898.34;;;20.23;54.21
10392;BME280;5242;49.244;6.774;2023-06-24T21:57:45;99895.75;;;20.05;54.10
10392;BME280;5242;49.244;6.774;2023-06-24T22:05:37;99894.75;;;19.84;54.38
10392;BME280;5242;49.244;6.774;2023-06-24T22:13:29;99893.28;;;19.65;54.29
10392;BME280;5242;49.244;6.774;2023-06-24T22:21:21;99900.50;;;19.48;56.82
10392;BME280;5242;49.244;6.774;2023-06-24T22:29:13;99903.75;;;19.32;56.68
10392;BME280;5242;49.244;6.774;2023-06-24T22:37:05;99907.00;;;19.20;57.69
10392;BME280;5242;49.244;6.774;2023-06-24T22:44:57;99909.47;;;18.97;58.62
10392;BME280;5242;49.244;6.774;2023-06-24T22:52:48;99902.44;;;18.71;58.33
10392;BME280;5242;49.244;6.774;2023-06-24T23:00:40;99899.38;;;18.47;59.52
10392;BME280;5242;49.244;6.774;2023-06-24T23:08:32;99895.47;;;18.30;61.13
10392;BME280;5242;49.244;6.774;2023-06-24T23:16:24;99886.03;;;18.10;61.61
10392;BME280;5242;49.244;6.774;2023-06-24T23:24:18;99894.75;;;17.97;63.12
10392;BME280;5242;49.244;6.774;2023-06-24T23:32:13;99880.56;;;17.88;61.23
10392;BME280;5242;49.244;6.774;2023-06-24T23:40:06;99882.13;;;17.75;64.02
10392;BME280;5242;49.244;6.774;2023-06-24T23:47:58;99874.22;;;17.66;65.38
10392;BME280;5242;49.244;6.774;2023-06-24T23:55:50;99867.94;;;17.58;66.14
